Time;durP1;ratioP1;P1;durP2;ratioP2;P2;SDS_P1;SDS_P2;PMS_P1;PMS_P2;Temp;Humidity;BMP_temperature;BMP_pressure;BME280_temperature;BME280_humidity;BME280_pressure;Samples;Min_cycle;Max_cycle;Signal;HPM_P1;HPM_P2
2022/11/09 00:01:20;;;;;;;0.47;0.38;;;;;;;;;;5108647;28;20028;-71
2022/11/09 00:03:46;;;;;;;0.25;0.25;;;;;;;;;;5096347;28;20020;-71
2022/11/09 00:06:12;;;;;;;0.47;0.47;;;;;;;;;;5089477;28;20085;-72
2022/11/09 00:08:39;;;;;;;1.42;1.40;;;;;;;;;;5089704;28;20036;-71
2022/11/09 00:11:06;;;;;;;0.10;0.10;;;;;;;;;;5089731;28;20036;-71
2022/11/09 00:13:34;;;;;;;0.25;0.25;;;;;;;;;;5090035;28;20016;-71
2022/11/09 00:16:01;;;;;;;0.30;0.30;;;;;;;;;;5090992;28;20031;-71
2022/11/09 00:18:29;;;;;;;0.85;0.82;;;;;;;;;;5093529;28;20028;-71
2022/11/09 00:20:55;;;;;;;0.25;0.25;;;;;;;;;;5093454;28;20433;-71
2022/11/09 00:23:21;;;;;;;0.15;0.15;;;;;;;;;;5094559;28;20061;-72
2022/11/09 00:25:47;;;;;;;0.50;0.38;;;;;;;;;;5093290;28;20066;-73
2022/11/09 00:28:13;;;;;;;0.10;0.10;;;;;;;;;;5093815;28;20035;-71
2022/11/09 00:30:39;;;;;;;0.20;0.20;;;;;;;;;;5092246;28;20039;-71
2022/11/09 00:33:06;;;;;;;0.43;0.43;;;;;;;;;;5075458;28;20032;-71
2022/11/09 00:35:32;;;;;;;0.20;0.20;;;;;;;;;;5093421;28;20111;-71
2022/11/09 00:37:58;;;;;;;0.13;0.13;;;;;;;;;;5093431;28;20416;-71
2022/11/09 00:40:24;;;;;;;0.35;0.35;;;;;;;;;;5093288;28;20055;-72
2022/11/09 00:42:49;;;;;;;0.10;0.10;;;;;;;;;;5093184;28;20028;-72
2022/11/09 00:45:15;;;;;;;0.10;0.10;;;;;;;;;;5092145;28;20028;-71
2022/11/09 00:47:41;;;;;;;0.10;0.10;;;;;;;;;;5091839;28;20113;-71
2022/11/09 00:50:08;;;;;;;0.10;0.10;;;;;;;;;;5092106;28;20066;-71
2022/11/09 00:52:35;;;;;;;0.10;0.10;;;;;;;;;;5091906;28;20032;-71
2022/11/09 00:55:01;;;;;;;0.10;0.10;;;;;;;;;;5093108;28;20368;-71
2022/11/09 00:57:27;;;;;;;0.10;0.10;;;;;;;;;;5100579;28;20051;-71
2022/11/09 00:59:53;;;;;;;1.63;1.52;;;;;;;;;;5098271;28;20475;-71
2022/11/09 01:02:18;;;;;;;0.30;0.30;;;;;;;;;;5093183;28;20032;-71
2022/11/09 01:04:45;;;;;;;0.17;0.17;;;;;;;;;;5097955;28;20088;-71
2022/11/09 01:07:10;;;;;;;0.50;0.50;;;;;;;;;;5100646;28;20063;-71
2022/11/09 01:09:36;;;;;;;0.10;0.10;;;;;;;;;;5114904;28;20074;-72
2022/11/09 01:12:02;;;;;;;0.10;0.10;;;;;;;;;;5096896;28;20031;-71
2022/11/09 01:14:28;;;;;;;0.13;0.13;;;;;;;;;;5108164;28;20155;-71
2022/11/09 01:16:54;;;;;;;0.73;0.73;;;;;;;;;;5117776;28;20424;-71
2022/11/09 01:19:19;;;;;;;2.85;2.60;;;;;;;;;;5117485;28;20047;-71
2022/11/09 01:21:46;;;;;;;0.20;0.20;;;;;;;;;;5117198;28;20031;-71
2022/11/09 01:24:11;;;;;;;2.83;2.72;;;;;;;;;;5116231;28;20051;-71
2022/11/09 01:26:38;;;;;;;0.10;0.10;;;;;;;;;;5117615;28;20030;-71
2022/11/09 01:29:03;;;;;;;0.35;0.35;;;;;;;;;;5103848;28;20020;-72
2022/11/09 01:31:32;;;;;;;0.15;0.15;;;;;;;;;;5121239;28;20058;-71
2022/11/09 01:34:00;;;;;;;0.68;0.68;;;;;;;;;;5116717;28;20077;-72
2022/11/09 01:36:27;;;;;;;0.40;0.40;;;;;;;;;;5116978;28;20011;-71
2022/11/09 01:38:53;;;;;;;0.10;0.10;;;;;;;;;;5116902;28;20032;-72
2022/11/09 01:41:26;;;;;;;0.55;0.55;;;;;;;;;;5115425;28;20039;-71
2022/11/09 01:44:03;;;;;;;0.57;0.57;;;;;;;;;;5116843;28;20031;-71
2022/11/09 01:46:33;;;;;;;0.20;0.20;;;;;;;;;;5116524;28;20044;-71
2022/11/09 01:49:01;;;;;;;0.15;0.15;;;;;;;;;;5115486;28;20076;-71
2022/11/09 01:51:38;;;;;;;0.38;0.38;;;;;;;;;;5115243;28;20173;-72
2022/11/09 01:54:11;;;;;;;0.22;0.22;;;;;;;;;;5116866;28;20031;-71
2022/11/09 01:56:37;;;;;;;0.43;0.43;;;;;;;;;;5116732;28;20026;-71
2022/11/09 01:59:19;;;;;;;0.10;0.10;;;;;;;;;;5115413;28;20039;-71
2022/11/09 02:01:45;;;;;;;0.43;0.43;;;;;;;;;;5115179;28;20023;-73
2022/11/09 02:04:19;;;;;;;2.20;1.17;;;;;;;;;;5114941;28;20037;-72
2022/11/09 02:06:45;;;;;;;0.30;0.30;;;;;;;;;;5098248;28;20056;-72
2022/11/09 02:09:30;;;;;;;0.20;0.20;;;;;;;;;;5115121;28;20122;-70
2022/11/09 02:11:58;;;;;;;0.10;0.10;;;;;;;;;;5115107;28;20027;-70
2022/11/09 02:14:25;;;;;;;4.07;1.65;;;;;;;;;;5113871;28;20032;-71
2022/11/09 02:16:51;;;;;;;1.05;1.05;;;;;;;;;;5115980;28;20030;-71
2022/11/09 02:19:17;;;;;;;0.25;0.25;;;;;;;;;;5116933;27;20050;-71
2022/11/09 02:21:43;;;;;;;1.10;1.10;;;;;;;;;;5115803;28;20024;-70
2022/11/09 02:24:08;;;;;;;4.47;3.10;;;;;;;;;;5117507;28;20035;-71
2022/11/09 02:26:42;;;;;;;0.45;0.45;;;;;;;;;;5116493;28;20031;-70
2022/11/09 02:29:12;;;;;;;0.63;0.63;;;;;;;;;;5115882;28;20493;-71
2022/11/09 02:31:41;;;;;;;0.10;0.10;;;;;;;;;;5114368;28;20103;-71
2022/11/09 02:34:12;;;;;;;0.10;0.10;;;;;;;;;;5116013;28;20027;-71
2022/11/09 02:36:38;;;;;;;0.10;0.10;;;;;;;;;;5114636;28;20024;-71
2022/11/09 02:39:09;;;;;;;0.20;0.20;;;;;;;;;;5114450;28;20429;-71
2022/11/09 02:42:01;;;;;;;0.90;0.90;;;;;;;;;;5114298;28;20106;-71
2022/11/09 02:44:33;;;;;;;0.28;0.28;;;;;;;;;;5114500;28;20055;-71
2022/11/09 02:46:59;;;;;;;0.10;0.10;;;;;;;;;;5115461;28;20059;-71
2022/11/09 02:49:26;;;;;;;3.30;2.38;;;;;;;;;;5114118;28;20032;-70
2022/11/09 02:51:52;;;;;;;0.50;0.50;;;;;;;;;;5115549;28;20072;-71
2022/11/09 02:54:17;;;;;;;0.22;0.22;;;;;;;;;;5115340;28;20024;-72
2022/11/09 02:56:43;;;;;;;0.13;0.13;;;;;;;;;;5114423;28;20023;-70
2022/11/09 02:59:09;;;;;;;0.63;0.63;;;;;;;;;;5115466;28;20079;-71
2022/11/09 03:01:36;;;;;;;0.20;0.20;;;;;;;;;;5097229;28;20043;-71
2022/11/09 03:04:02;;;;;;;0.90;0.85;;;;;;;;;;5115503;28;20467;-70
2022/11/09 03:06:37;;;;;;;0.20;0.20;;;;;;;;;;5113923;28;20065;-71
2022/11/09 03:09:10;;;;;;;0.10;0.10;;;;;;;;;;5115177;28;20039;-72
2022/11/09 03:11:36;;;;;;;0.10;0.10;;;;;;;;;;5096926;28;20035;-72
2022/11/09 03:14:02;;;;;;;0.30;0.30;;;;;;;;;;5115510;28;20474;-71
2022/11/09 03:16:29;;;;;;;0.28;0.28;;;;;;;;;;5113695;28;20028;-72
2022/11/09 03:18:57;;;;;;;0.10;0.10;;;;;;;;;;5113708;28;20401;-70
2022/11/09 03:21:23;;;;;;;0.10;0.10;;;;;;;;;;5113575;28;20474;-72
2022/11/09 03:23:52;;;;;;;2.03;0.90;;;;;;;;;;5096682;28;20032;-71
2022/11/09 03:26:19;;;;;;;1.95;1.55;;;;;;;;;;5113674;28;20045;-71
2022/11/09 03:28:45;;;;;;;0.10;0.10;;;;;;;;;;5113065;28;20115;-71
2022/11/09 03:31:11;;;;;;;0.10;0.10;;;;;;;;;;5113451;28;20122;-71
2022/11/09 03:33:37;;;;;;;0.30;0.30;;;;;;;;;;5113383;28;20031;-71
2022/11/09 03:36:03;;;;;;;0.17;0.17;;;;;;;;;;5113281;28;20028;-71
2022/11/09 03:38:29;;;;;;;0.20;0.20;;;;;;;;;;5096553;28;20382;-71
2022/11/09 03:40:57;;;;;;;0.20;0.20;;;;;;;;;;5114688;27;20035;-71
2022/11/09 03:43:24;;;;;;;0.10;0.10;;;;;;;;;;5113173;28;20123;-71
2022/11/09 03:45:50;;;;;;;0.20;0.20;;;;;;;;;;5114118;28;20102;-71
2022/11/09 03:48:16;;;;;;;0.13;0.13;;;;;;;;;;5114537;28;20471;-71
2022/11/09 03:50:42;;;;;;;0.10;0.10;;;;;;;;;;5114093;28;20123;-71
2022/11/09 03:53:10;;;;;;;0.15;0.15;;;;;;;;;;5113241;28;20047;-71
2022/11/09 03:55:37;;;;;;;0.20;0.20;;;;;;;;;;5114358;28;20382;-70
2022/11/09 03:58:04;;;;;;;0.43;0.43;;;;;;;;;;5114217;28;20055;-70
2022/11/09 04:00:30;;;;;;;1.73;1.60;;;;;;;;;;5103509;28;20114;-71
2022/11/09 04:02:58;;;;;;;0.10;0.10;;;;;;;;;;5098479;28;20024;-73
2022/11/09 04:05:24;;;;;;;0.10;0.10;;;;;;;;;;5089948;28;20024;-70
2022/11/09 04:07:51;;;;;;;0.10;0.10;;;;;;;;;;5088975;28;20024;-71
2022/11/09 04:10:17;;;;;;;0.20;0.20;;;;;;;;;;5103018;28;20481;-71
2022/11/09 04:12:43;;;;;;;0.20;0.20;;;;;;;;;;5108572;28;20024;-72
2022/11/09 04:15:09;;;;;;;0.10;0.10;;;;;;;;;;5110458;27;20111;-70
2022/11/09 04:17:35;;;;;;;0.20;0.20;;;;;;;;;;5110060;28;20031;-72
2022/11/09 04:20:01;;;;;;;0.10;0.10;;;;;;;;;;5108587;28;20031;-72
2022/11/09 04:22:27;;;;;;;0.30;0.30;;;;;;;;;;5110243;28;20027;-71
2022/11/09 04:24:53;;;;;;;0.10;0.10;;;;;;;;;;5109918;28;20020;-71
2022/11/09 04:27:19;;;;;;;0.20;0.20;;;;;;;;;;5109310;28;20050;-71
2022/11/09 04:29:45;;;;;;;0.10;0.10;;;;;;;;;;5109044;28;20101;-72
2022/11/09 04:32:10;;;;;;;0.10;0.10;;;;;;;;;;5089437;28;20032;-72
2022/11/09 04:34:36;;;;;;;0.60;0.60;;;;;;;;;;5089130;28;20436;-72
2022/11/09 04:37:02;;;;;;;4.55;2.97;;;;;;;;;;5089179;28;20379;-72
2022/11/09 04:39:27;;;;;;;0.20;0.20;;;;;;;;;;5089806;28;20036;-71
2022/11/09 04:41:53;;;;;;;0.20;0.20;;;;;;;;;;5092079;28;20085;-71
2022/11/09 04:44:19;;;;;;;0.10;0.10;;;;;;;;;;5094111;28;20025;-72
2022/11/09 04:46:45;;;;;;;0.15;0.15;;;;;;;;;;5096070;28;20044;-71
2022/11/09 04:49:11;;;;;;;0.20;0.20;;;;;;;;;;5094325;28;20494;-71
2022/11/09 04:51:37;;;;;;;0.10;0.10;;;;;;;;;;5093136;28;20040;-72
2022/11/09 04:54:03;;;;;;;0.10;0.10;;;;;;;;;;5093916;28;20476;-70
2022/11/09 04:56:28;;;;;;;0.20;0.20;;;;;;;;;;5092606;28;20043;-71
2022/11/09 07:31:32;;;;;;;0.70;0.70;;;;;;;;;;5108674;28;20619;-73
2022/11/09 07:34:03;;;;;;;1.13;1.13;;;;;;;;;;5111429;28;20470;-72
2022/11/09 07:36:30;;;;;;;0.10;0.10;;;;;;;;;;5111092;28;20345;-71
2022/11/09 07:38:57;;;;;;;0.85;0.85;;;;;;;;;;5110893;28;20032;-71
2022/11/09 07:41:23;;;;;;;0.30;0.30;;;;;;;;;;5110688;28;20028;-71
2022/11/09 07:43:48;;;;;;;1.10;1.00;;;;;;;;;;5111027;28;20093;-71
2022/11/09 07:46:16;;;;;;;0.30;0.30;;;;;;;;;;5110589;28;20494;-72
2022/11/09 07:48:41;;;;;;;0.30;0.30;;;;;;;;;;5109291;28;20031;-71
2022/11/09 07:51:09;;;;;;;0.10;0.10;;;;;;;;;;5110470;28;20183;-71
2022/11/09 07:53:35;;;;;;;0.15;0.15;;;;;;;;;;5106224;28;20482;-72
2022/11/09 07:56:02;;;;;;;0.10;0.10;;;;;;;;;;5107870;28;20020;-72
2022/11/09 07:58:28;;;;;;;0.10;0.10;;;;;;;;;;5109170;28;20560;-71
2022/11/09 08:00:53;;;;;;;0.28;0.28;;;;;;;;;;5108002;28;20059;-72
2022/11/09 08:03:20;;;;;;;0.20;0.20;;;;;;;;;;5108334;28;20463;-71
2022/11/09 08:05:47;;;;;;;0.10;0.10;;;;;;;;;;5108574;28;20020;-73
2022/11/09 08:08:14;;;;;;;0.10;0.10;;;;;;;;;;5110066;28;20034;-72
2022/11/09 08:10:40;;;;;;;0.15;0.15;;;;;;;;;;5109521;28;20059;-73
2022/11/09 08:13:07;;;;;;;0.10;0.10;;;;;;;;;;5109617;28;20502;-73
2022/11/09 08:15:33;;;;;;;0.30;0.30;;;;;;;;;;5102658;28;20038;-73
2022/11/09 08:18:00;;;;;;;0.30;0.30;;;;;;;;;;5108248;28;20538;-73
2022/11/09 08:20:26;;;;;;;0.30;0.30;;;;;;;;;;5107373;28;20495;-74
2022/11/09 08:22:52;;;;;;;0.98;0.90;;;;;;;;;;5107455;28;20080;-73
2022/11/09 08:25:17;;;;;;;1.52;1.13;;;;;;;;;;5107642;28;20489;-74
2022/11/09 08:27:43;;;;;;;2.25;0.50;;;;;;;;;;5105984;28;20502;-72
2022/11/09 08:30:13;;;;;;;0.40;0.40;;;;;;;;;;5107515;28;20051;-73
2022/11/09 08:32:40;;;;;;;0.52;0.47;;;;;;;;;;5088607;28;20587;-74
2022/11/09 08:35:06;;;;;;;0.88;0.88;;;;;;;;;;5094814;28;20035;-74
2022/11/09 08:37:35;;;;;;;0.20;0.20;;;;;;;;;;5087064;28;20036;-74
2022/11/09 08:40:01;;;;;;;;;;;;;;;;;;5087198;28;20021;-73
2022/11/09 08:42:26;;;;;;;0.15;0.15;;;;;;;;;;5087409;28;19908;-73
2022/11/09 08:44:52;;;;;;;0.95;0.95;;;;;;;;;;5086624;28;20085;-72
2022/11/09 08:47:18;;;;;;;0.65;0.65;;;;;;;;;;5087355;28;20035;-74
2022/11/09 08:49:46;;;;;;;0.68;0.68;;;;;;;;;;5087181;28;20077;-73
2022/11/09 08:52:12;;;;;;;0.40;0.40;;;;;;;;;;5085617;28;20035;-74
2022/11/09 08:54:38;;;;;;;0.30;0.30;;;;;;;;;;5087026;28;20414;-73
2022/11/09 08:57:04;;;;;;;3.70;3.45;;;;;;;;;;5087277;28;20042;-72
2022/11/09 08:59:30;;;;;;;0.10;0.10;;;;;;;;;;5085586;28;20024;-72
2022/11/09 09:01:56;;;;;;;0.65;0.63;;;;;;;;;;5087248;28;20047;-73
2022/11/09 09:04:21;;;;;;;0.70;0.70;;;;;;;;;;5087695;28;20053;-72
2022/11/09 09:06:47;;;;;;;0.20;0.20;;;;;;;;;;5089056;28;20032;-72
2022/11/09 09:09:13;;;;;;;0.10;0.10;;;;;;;;;;5089046;28;20035;-74
2022/11/09 09:11:39;;;;;;;0.22;0.22;;;;;;;;;;5088931;28;20475;-72
2022/11/09 09:14:05;;;;;;;0.30;0.30;;;;;;;;;;5087879;28;20062;-72
2022/11/09 09:16:32;;;;;;;3.22;1.48;;;;;;;;;;5089027;28;20114;-72
2022/11/09 09:18:57;;;;;;;0.65;0.63;;;;;;;;;;5106726;28;20486;-71
2022/11/09 09:21:23;;;;;;;0.20;0.20;;;;;;;;;;5109064;28;20027;-72
2022/11/09 09:23:49;;;;;;;0.20;0.20;;;;;;;;;;5109280;28;20038;-71
2022/11/09 09:26:16;;;;;;;0.28;0.28;;;;;;;;;;5109648;28;20375;-72
2022/11/09 09:28:42;;;;;;;0.30;0.30;;;;;;;;;;5094070;28;20542;-72
2022/11/09 09:31:08;;;;;;;0.63;0.63;;;;;;;;;;5112532;28;20130;-73
2022/11/09 09:33:34;;;;;;;0.20;0.20;;;;;;;;;;5111080;28;20108;-72
2022/11/09 09:36:00;;;;;;;0.20;0.20;;;;;;;;;;5113126;28;20850;-72
2022/11/09 09:38:26;;;;;;;1.55;0.75;;;;;;;;;;5112855;28;20107;-73
2022/11/09 09:40:52;;;;;;;0.50;0.50;;;;;;;;;;5111250;28;20056;-73
2022/11/09 09:43:27;;;;;;;0.20;0.20;;;;;;;;;;5112479;28;20107;-72
2022/11/09 09:45:53;;;;;;;0.20;0.20;;;;;;;;;;5112625;28;20024;-71
2022/11/09 09:48:25;;;;;;;0.20;0.20;;;;;;;;;;5112273;28;20035;-72
2022/11/09 09:50:53;;;;;;;0.20;0.20;;;;;;;;;;5112139;28;20517;-72
2022/11/09 09:53:32;;;;;;;0.30;0.30;;;;;;;;;;5112196;28;20023;-74
2022/11/09 09:56:03;;;;;;;0.57;0.57;;;;;;;;;;5111208;28;20171;-72
2022/11/09 09:58:31;;;;;;;0.20;0.20;;;;;;;;;;5112227;28;20077;-72
2022/11/09 10:01:23;;;;;;;0.20;0.20;;;;;;;;;;5111929;28;20462;-72
2022/11/09 10:03:50;;;;;;;0.10;0.10;;;;;;;;;;5106355;28;20039;-72
2022/11/09 10:06:36;;;;;;;0.30;0.30;;;;;;;;;;5110427;28;20023;-72
2022/11/09 10:09:08;;;;;;;0.20;0.20;;;;;;;;;;5110716;28;20028;-72
2022/11/09 10:11:34;;;;;;;0.20;0.20;;;;;;;;;;5112133;28;20049;-74
2022/11/09 10:14:19;;;;;;;0.13;0.13;;;;;;;;;;5111908;28;20024;-73
2022/11/09 10:16:55;;;;;;;0.20;0.20;;;;;;;;;;5112065;28;20043;-72
2022/11/09 10:19:20;;;;;;;0.50;0.50;;;;;;;;;;5112025;28;20027;-74
2022/11/09 10:21:49;;;;;;;0.20;0.20;;;;;;;;;;5111771;28;20471;-73
2022/11/09 10:24:18;;;;;;;0.32;0.32;;;;;;;;;;5110405;28;20493;-73
2022/11/09 10:26:47;;;;;;;0.30;0.30;;;;;;;;;;5111349;28;20020;-72
2022/11/09 10:29:23;;;;;;;0.30;0.30;;;;;;;;;;5110555;28;20028;-73
2022/11/09 10:32:10;;;;;;;0.20;0.20;;;;;;;;;;5111757;28;20039;-73
2022/11/09 10:34:39;;;;;;;0.80;0.80;;;;;;;;;;5110958;28;20065;-71
2022/11/09 10:37:14;;;;;;;0.68;0.57;;;;;;;;;;5112022;28;20027;-71
2022/11/09 10:39:51;;;;;;;0.65;0.35;;;;;;;;;;5110124;28;20085;-71
2022/11/09 10:42:35;;;;;;;0.20;0.20;;;;;;;;;;5110594;28;20043;-74
2022/11/09 10:45:33;;;;;;;0.57;0.57;;;;;;;;;;5110541;28;20378;-73
2022/11/09 10:48:28;;;;;;;0.20;0.20;;;;;;;;;;5110919;28;20448;-73
2022/11/09 10:51:31;;;;;;;0.70;0.70;;;;;;;;;;5110430;28;20093;-75
2022/11/09 10:54:15;;;;;;;0.22;0.22;;;;;;;;;;5111524;28;20038;-73
2022/11/09 10:57:11;;;;;;;0.15;0.15;;;;;;;;;;5111331;28;20132;-73
2022/11/09 10:59:56;;;;;;;0.40;0.40;;;;;;;;;;5111334;28;20047;-73
2022/11/09 11:02:42;;;;;;;0.22;0.22;;;;;;;;;;5111184;28;20043;-72
2022/11/09 11:05:27;;;;;;;0.20;0.20;;;;;;;;;;5111284;28;20065;-73
2022/11/09 11:08:23;;;;;;;0.40;0.40;;;;;;;;;;5111422;28;20078;-73
2022/11/09 11:11:13;;;;;;;0.20;0.20;;;;;;;;;;5111123;28;20050;-73
2022/11/09 11:14:17;;;;;;;0.32;0.32;;;;;;;;;;5111269;28;20062;-72
2022/11/09 11:17:02;;;;;;;0.30;0.30;;;;;;;;;;5111096;28;20382;-70
2022/11/09 11:19:49;;;;;;;1.98;1.88;;;;;;;;;;5109784;28;20038;-71
2022/11/09 11:22:34;;;;;;;0.30;0.30;;;;;;;;;;5110867;28;20084;-71
2022/11/09 11:25:20;;;;;;;0.75;0.57;;;;;;;;;;5111102;28;20089;-70
2022/11/09 11:28:11;;;;;;;0.20;0.20;;;;;;;;;;5111038;28;20243;-70
2022/11/09 11:30:55;;;;;;;0.50;0.50;;;;;;;;;;5110087;28;20092;-70
2022/11/09 11:33:39;;;;;;;0.20;0.20;;;;;;;;;;5110748;28;20031;-71
2022/11/09 11:36:41;;;;;;;0.20;0.20;;;;;;;;;;5110686;28;20046;-71
2022/11/09 11:39:26;;;;;;;0.15;0.15;;;;;;;;;;5110765;28;20501;-73
2022/11/09 11:42:29;;;;;;;0.25;0.25;;;;;;;;;;5110529;28;20050;-72
2022/11/09 11:45:15;;;;;;;0.25;0.25;;;;;;;;;;5110303;28;20038;-73
2022/11/09 11:48:15;;;;;;;1.20;0.68;;;;;;;;;;5110752;28;20297;-72
2022/11/09 11:51:05;;;;;;;0.20;0.20;;;;;;;;;;5109949;28;20097;-72
2022/11/09 11:54:02;;;;;;;0.82;0.82;;;;;;;;;;5110539;28;20402;-71
2022/11/09 11:56:51;;;;;;;0.20;0.20;;;;;;;;;;5110379;28;20107;-70
2022/11/09 11:59:41;;;;;;;0.20;0.20;;;;;;;;;;5110462;28;20069;-73
2022/11/09 12:02:25;;;;;;;0.28;0.28;;;;;;;;;;5108969;28;20501;-70
2022/11/09 12:05:28;;;;;;;0.30;0.30;;;;;;;;;;5110496;28;20432;-72
2022/11/09 12:08:18;;;;;;;0.20;0.20;;;;;;;;;;5119394;28;20453;-71
2022/11/09 12:11:16;;;;;;;0.43;0.43;;;;;;;;;;5120251;28;20051;-70
2022/11/09 12:14:08;;;;;;;0.20;0.20;;;;;;;;;;5121124;28;20088;-69
2022/11/09 12:17:05;;;;;;;0.25;0.25;;;;;;;;;;5119245;28;20122;-72
2022/11/09 12:19:53;;;;;;;0.73;0.73;;;;;;;;;;5110464;28;20097;-71
2022/11/09 12:22:54;;;;;;;0.25;0.25;;;;;;;;;;5109946;28;20470;-70
2022/11/09 12:25:54;;;;;;;0.30;0.30;;;;;;;;;;5109892;28;20453;-70
2022/11/09 12:29:00;;;;;;;0.20;0.20;;;;;;;;;;5109638;28;20092;-70
2022/11/09 12:31:54;;;;;;;0.30;0.30;;;;;;;;;;5109544;28;20116;-70
2022/11/09 12:34:56;;;;;;;0.50;0.50;;;;;;;;;;5109481;28;20034;-70
2022/11/09 12:37:47;;;;;;;0.25;0.25;;;;;;;;;;5109638;28;20394;-70
2022/11/09 12:40:33;;;;;;;0.63;0.63;;;;;;;;;;5109664;28;20077;-70
2022/11/09 12:43:26;;;;;;;0.30;0.30;;;;;;;;;;5109994;28;20096;-70
2022/11/09 12:46:12;;;;;;;0.22;0.22;;;;;;;;;;5109856;28;20114;-70
2022/11/09 12:48:58;;;;;;;0.60;0.60;;;;;;;;;;5109398;28;20039;-70
2022/11/09 12:51:42;;;;;;;0.20;0.20;;;;;;;;;;5109561;28;20047;-70
2022/11/09 12:54:28;;;;;;;0.20;0.20;;;;;;;;;;5109600;28;20402;-72
2022/11/09 12:57:20;;;;;;;0.30;0.30;;;;;;;;;;5109627;28;20069;-70
2022/11/09 13:00:05;;;;;;;0.20;0.20;;;;;;;;;;5109686;28;20042;-70
2022/11/09 13:02:52;;;;;;;0.20;0.20;;;;;;;;;;5111185;28;20057;-73
2022/11/09 13:05:37;;;;;;;0.30;0.30;;;;;;;;;;5113900;28;20169;-71
2022/11/09 13:08:29;;;;;;;0.20;0.20;;;;;;;;;;5113660;28;20105;-70
2022/11/09 13:11:16;;;;;;;0.20;0.20;;;;;;;;;;5113305;28;20084;-70
2022/11/09 13:14:19;;;;;;;0.25;0.25;;;;;;;;;;5113612;28;20078;-69
2022/11/09 13:17:22;;;;;;;0.20;0.20;;;;;;;;;;5113598;28;20038;-70
2022/11/09 13:20:27;;;;;;;0.20;0.20;;;;;;;;;;5113560;28;20034;-70
2022/11/09 13:23:23;;;;;;;0.30;0.30;;;;;;;;;;5112532;28;20531;-70
2022/11/09 13:26:20;;;;;;;0.30;0.30;;;;;;;;;;5113389;28;20034;-70
2022/11/09 13:29:08;;;;;;;0.30;0.30;;;;;;;;;;5113222;28;20039;-70
2022/11/09 13:32:10;;;;;;;0.20;0.20;;;;;;;;;;5112643;28;20042;-70
2022/11/09 13:34:54;;;;;;;0.20;0.20;;;;;;;;;;5112975;28;20039;-71
2022/11/09 13:37:41;;;;;;;0.20;0.20;;;;;;;;;;5113103;28;20112;-71
2022/11/09 13:40:29;;;;;;;0.30;0.30;;;;;;;;;;5112730;28;20444;-70
2022/11/09 13:43:14;;;;;;;0.20;0.20;;;;;;;;;;5113136;28;20068;-72
2022/11/09 13:45:59;;;;;;;0.28;0.28;;;;;;;;;;5112933;28;20093;-71
2022/11/09 13:48:52;;;;;;;0.20;0.20;;;;;;;;;;5112370;28;20073;-71
2022/11/09 13:51:40;;;;;;;0.20;0.20;;;;;;;;;;5112638;28;20055;-72
2022/11/09 13:54:27;;;;;;;0.30;0.30;;;;;;;;;;5112780;28;20039;-73
2022/11/09 13:57:12;;;;;;;2.60;2.40;;;;;;;;;;5112932;28;20142;-73
2022/11/09 13:59:57;;;;;;;0.30;0.30;;;;;;;;;;5112522;28;20035;-71
2022/11/09 14:02:50;;;;;;;0.52;0.50;;;;;;;;;;5112637;28;20043;-72
2022/11/09 14:05:38;;;;;;;11.02;0.73;;;;;;;;;;5112463;28;20039;-70
2022/11/09 14:08:42;;;;;;;0.38;0.30;;;;;;;;;;5113160;28;20050;-69
2022/11/09 14:11:27;;;;;;;0.38;0.38;;;;;;;;;;5112591;28;20069;-70
2022/11/09 14:14:30;;;;;;;0.30;0.30;;;;;;;;;;5112038;28;20092;-71
2022/11/09 14:17:28;;;;;;;0.30;0.30;;;;;;;;;;5112422;28;20070;-69
2022/11/09 14:20:18;;;;;;;1.75;0.75;;;;;;;;;;5112346;28;20779;-69
2022/11/09 14:23:02;;;;;;;0.70;0.70;;;;;;;;;;5112396;28;20066;-71
2022/11/09 14:25:50;;;;;;;0.28;0.28;;;;;;;;;;5112206;28;20035;-71
2022/11/09 14:28:35;;;;;;;0.50;0.50;;;;;;;;;;5111656;28;20035;-72
2022/11/09 14:31:22;;;;;;;0.85;0.70;;;;;;;;;;5111558;28;20151;-70
2022/11/09 14:34:13;;;;;;;0.30;0.30;;;;;;;;;;5111980;28;20096;-71
2022/11/09 14:36:57;;;;;;;0.30;0.30;;;;;;;;;;5111531;28;20080;-70
2022/11/09 14:39:45;;;;;;;0.45;0.43;;;;;;;;;;5111543;28;20042;-70
2022/11/09 14:42:29;;;;;;;0.20;0.20;;;;;;;;;;5111919;28;20429;-71
2022/11/09 14:45:14;;;;;;;0.20;0.20;;;;;;;;;;5111478;28;20035;-71
2022/11/09 14:47:59;;;;;;;0.20;0.20;;;;;;;;;;5112000;28;20263;-70
2022/11/09 14:50:43;;;;;;;0.30;0.30;;;;;;;;;;5110339;28;20038;-71
2022/11/09 14:53:34;;;;;;;0.35;0.35;;;;;;;;;;5111407;28;20046;-69
2022/11/09 14:56:20;;;;;;;0.20;0.20;;;;;;;;;;5111645;28;20093;-69
2022/11/09 14:59:05;;;;;;;0.20;0.20;;;;;;;;;;5111464;28;20038;-71
2022/11/09 15:02:01;;;;;;;0.30;0.30;;;;;;;;;;5111193;28;20042;-72
2022/11/09 15:04:59;;;;;;;0.98;0.98;;;;;;;;;;5111267;28;20054;-70
2022/11/09 15:07:45;;;;;;;0.20;0.20;;;;;;;;;;5111390;28;20134;-70
2022/11/09 15:10:31;;;;;;;0.13;0.13;;;;;;;;;;5110999;28;20062;-70
2022/11/09 15:13:16;;;;;;;0.30;0.30;;;;;;;;;;5111019;28;20035;-70
2022/11/09 15:16:01;;;;;;;0.20;0.20;;;;;;;;;;5111193;28;20505;-71
2022/11/09 15:18:45;;;;;;;0.20;0.20;;;;;;;;;;5110531;28;20070;-70
2022/11/09 15:21:30;;;;;;;0.30;0.30;;;;;;;;;;5111146;28;20443;-70
2022/11/09 15:24:16;;;;;;;0.20;0.20;;;;;;;;;;5110453;28;20142;-71
2022/11/09 15:27:01;;;;;;;0.20;0.20;;;;;;;;;;5110548;28;20130;-70
2022/11/09 15:29:45;;;;;;;0.30;0.30;;;;;;;;;;5110555;28;20131;-70
2022/11/09 15:32:37;;;;;;;0.22;0.22;;;;;;;;;;5110817;28;20210;-69
2022/11/09 15:35:22;;;;;;;0.20;0.20;;;;;;;;;;5110625;28;20061;-70
2022/11/09 15:38:26;;;;;;;0.25;0.25;;;;;;;;;;5110970;28;20433;-70
2022/11/09 15:41:14;;;;;;;0.15;0.15;;;;;;;;;;5110710;28;20054;-70
2022/11/09 15:43:59;;;;;;;0.30;0.30;;;;;;;;;;5110494;28;20176;-71
2022/11/09 15:46:45;;;;;;;0.30;0.30;;;;;;;;;;5110518;28;20391;-70
2022/11/09 15:49:29;;;;;;;0.20;0.20;;;;;;;;;;5110555;28;20042;-71
2022/11/09 15:52:13;;;;;;;0.20;0.20;;;;;;;;;;5110043;28;20405;-70
2022/11/09 15:54:57;;;;;;;0.20;0.20;;;;;;;;;;5110203;28;20473;-70
2022/11/09 15:57:42;;;;;;;0.45;0.45;;;;;;;;;;5110282;28;20463;-73
2022/11/09 16:00:27;;;;;;;0.20;0.20;;;;;;;;;;5110236;28;20046;-71
2022/11/09 16:03:12;;;;;;;0.20;0.20;;;;;;;;;;5110452;28;20048;-70
2022/11/09 16:05:58;;;;;;;0.20;0.20;;;;;;;;;;5110390;28;20039;-71
2022/11/09 16:08:42;;;;;;;0.20;0.20;;;;;;;;;;5108838;28;20123;-71
2022/11/09 16:11:27;;;;;;;0.10;0.10;;;;;;;;;;5109750;28;20065;-71
2022/11/09 16:14:11;;;;;;;0.20;0.20;;;;;;;;;;5110334;28;20047;-73
2022/11/09 16:16:55;;;;;;;0.20;0.20;;;;;;;;;;5110263;28;20058;-70
2022/11/09 16:19:42;;;;;;;0.13;0.13;;;;;;;;;;5116523;27;20042;-71
2022/11/09 16:22:30;;;;;;;0.20;0.20;;;;;;;;;;5109090;28;20050;-71
2022/11/09 16:25:14;;;;;;;0.20;0.20;;;;;;;;;;5124992;27;20050;-71
2022/11/09 16:27:59;;;;;;;0.20;0.20;;;;;;;;;;5129570;27;20077;-71
2022/11/09 16:30:43;;;;;;;0.20;0.20;;;;;;;;;;5128737;27;20108;-73
2022/11/09 16:33:28;;;;;;;0.20;0.20;;;;;;;;;;5129109;27;20049;-70
2022/11/09 16:36:15;;;;;;;0.10;0.10;;;;;;;;;;5127569;27;20233;-70
2022/11/09 16:39:03;;;;;;;0.10;0.10;;;;;;;;;;5127305;27;20123;-71
2022/11/09 16:41:49;;;;;;;0.10;0.10;;;;;;;;;;5128299;28;20100;-73
2022/11/09 16:44:34;;;;;;;0.17;0.17;;;;;;;;;;5127830;28;20135;-73
2022/11/09 16:47:20;;;;;;;0.20;0.20;;;;;;;;;;5128108;28;20452;-72
2022/11/09 16:50:05;;;;;;;0.10;0.10;;;;;;;;;;5126691;27;20113;-72
2022/11/09 16:52:49;;;;;;;0.15;0.15;;;;;;;;;;5126701;27;20046;-70
2022/11/09 16:55:34;;;;;;;0.20;0.20;;;;;;;;;;5128108;28;20220;-71
2022/11/09 16:58:18;;;;;;;0.15;0.15;;;;;;;;;;5126938;28;20124;-70
2022/11/09 17:01:03;;;;;;;0.20;0.20;;;;;;;;;;5127301;28;20088;-72
2022/11/09 17:03:48;;;;;;;8.20;1.98;;;;;;;;;;5128197;28;20096;-69
2022/11/09 17:06:34;;;;;;;0.10;0.10;;;;;;;;;;5127866;28;20046;-72
2022/11/09 17:09:19;;;;;;;0.20;0.20;;;;;;;;;;5127403;28;20119;-72
2022/11/09 17:12:04;;;;;;;0.10;0.10;;;;;;;;;;5107594;28;20058;-71
2022/11/09 17:14:48;;;;;;;0.15;0.15;;;;;;;;;;5104897;28;20042;-70
2022/11/09 17:17:32;;;;;;;0.20;0.20;;;;;;;;;;5107725;28;20062;-71
2022/11/09 17:20:16;;;;;;;0.20;0.20;;;;;;;;;;5113426;28;20122;-71
2022/11/09 17:23:01;;;;;;;0.20;0.20;;;;;;;;;;5110784;28;20084;-73
2022/11/09 17:26:04;;;;;;;0.10;0.10;;;;;;;;;;5111124;28;20044;-71
2022/11/09 17:28:48;;;;;;;0.30;0.30;;;;;;;;;;5107404;28;20118;-70
2022/11/09 17:31:33;;;;;;;0.38;0.38;;;;;;;;;;5107062;28;20065;-71
2022/11/09 17:34:17;;;;;;;0.10;0.10;;;;;;;;;;5107770;28;20038;-71
2022/11/09 17:37:01;;;;;;;0.30;0.30;;;;;;;;;;5108588;28;20050;-72
2022/11/09 17:39:45;;;;;;;0.10;0.10;;;;;;;;;;5101610;28;20115;-71
2022/11/09 17:42:29;;;;;;;0.17;0.17;;;;;;;;;;5100385;28;20105;-72
2022/11/09 17:45:13;;;;;;;0.25;0.25;;;;;;;;;;5097290;28;20182;-71
2022/11/09 17:47:58;;;;;;;0.10;0.10;;;;;;;;;;5099615;28;20062;-71
2022/11/09 17:50:42;;;;;;;0.20;0.20;;;;;;;;;;5102469;28;20161;-73
2022/11/09 17:53:26;;;;;;;0.20;0.20;;;;;;;;;;5109909;28;20057;-72
2022/11/09 17:56:11;;;;;;;0.10;0.10;;;;;;;;;;5110635;28;20084;-71
2022/11/09 17:58:55;;;;;;;1.02;1.02;;;;;;;;;;5109684;28;20037;-70
2022/11/09 18:01:40;;;;;;;0.85;0.85;;;;;;;;;;5111473;28;20081;-71
2022/11/09 18:04:24;;;;;;;1.23;1.23;;;;;;;;;;5111512;28;20035;-71
2022/11/09 18:07:08;;;;;;;0.47;0.47;;;;;;;;;;5111313;28;20513;-70
2022/11/09 18:09:52;;;;;;;0.20;0.20;;;;;;;;;;5110126;28;20520;-70
2022/11/09 18:12:36;;;;;;;1.15;1.15;;;;;;;;;;5111142;28;20046;-71
2022/11/09 18:15:20;;;;;;;5.53;5.15;;;;;;;;;;5111020;28;20038;-73